Time,TemperatureF,DewpointF,PressureIn,WindDirection,WindDirectionDegrees,WindSpeedMPH,WindSpeedGustMPH,Humidity,HourlyPrecipIn,Conditions,Clouds,dailyrainin,SoftwareType,DateUTC
2013-10-19 00:12:00,41.0,38.3,29.93,ESE,112,1.7,-999.0,90,-99.99,,,0.00,Acu-Link.com,2013-10-19 04:12:00,
2013-10-19 00:27:00,40.6,38.5,29.93,SE,135,0.0,-999.0,92,-99.99,,,0.00,Acu-Link.com,2013-10-19 04:27:00,
2013-10-19 00:42:00,39.9,38.3,29.93,ESE,112,0.0,-999.0,94,-99.99,,,0.00,Acu-Link.com,2013-10-19 04:42:00,
2013-10-19 00:59:00,39.6,38.3,29.93,ESE,112,0.0,-999.0,95,-99.99,,,0.00,Acu-Link.com,2013-10-19 04:59:00,
2013-10-19 01:14:00,39.4,38.1,29.93,ESE,112,0.0,-999.0,95,-99.99,,,0.00,Acu-Link.com,2013-10-19 05:14:00,
2013-10-19 01:30:00,39.4,38.1,29.92,ESE,112,0.0,-999.0,95,-99.99,,,0.00,Acu-Link.com,2013-10-19 05:30:00,
2013-10-19 01:45:00,39.4,38.4,29.92,ESE,112,0.0,-999.0,96,-99.99,,,0.00,Acu-Link.com,2013-10-19 05:45:00,
2013-10-19 02:00:00,39.2,38.2,29.92,ESE,112,0.0,-999.0,96,-99.99,,,0.00,Acu-Link.com,2013-10-19 06:00:00,
2013-10-19 02:16:00,39.0,38.7,29.92,ESE,112,0.0,-999.0,99,-99.99,,,0.00,Acu-Link.com,2013-10-19 06:16:00,
2013-10-19 02:31:00,38.5,38.0,29.92,ESE,112,0.0,-999.0,98,-99.99,,,0.00,Acu-Link.com,2013-10-19 06:31:00,
2013-10-19 02:46:00,38.3,38.0,29.91,ESE,112,0.0,-999.0,99,-99.99,,,0.00,Acu-Link.com,2013-10-19 06:46:00,
2013-10-19 03:02:00,38.3,38.0,29.91,ESE,112,0.0,-999.0,99,-99.99,,,0.00,Acu-Link.com,2013-10-19 07:02:00,
2013-10-19 03:18:00,38.1,37.8,29.90,ESE,112,0.0,-999.0,99,-99.99,,,0.00,Acu-Link.com,2013-10-19 07:18:00,
2013-10-19 03:33:00,37.9,37.6,29.90,SSE,157,0.0,-999.0,99,-99.99,,,0.00,Acu-Link.com,2013-10-19 07:33:00,
2013-10-19 03:48:00,37.4,37.1,29.90,SE,135,0.0,-999.0,99,-99.99,,,0.00,Acu-Link.com,2013-10-19 07:48:00,
2013-10-19 04:03:00,37.2,36.9,29.89,ESE,112,0.0,-999.0,99,-99.99,,,0.00,Acu-Link.com,2013-10-19 08:03:00,
2013-10-19 04:18:00,37.2,36.9,29.89,SE,135,0.0,-999.0,99,-99.99,,,0.00,Acu-Link.com,2013-10-19 08:18:00,
2013-10-19 04:34:00,37.0,36.7,29.88,SSE,157,0.0,-999.0,99,-99.99,,,0.00,Acu-Link.com,2013-10-19 08:34:00,
2013-10-19 04:49:00,37.0,36.7,29.88,ESE,112,0.0,-999.0,99,-99.99,,,0.00,Acu-Link.com,2013-10-19 08:49:00,
2013-10-19 05:04:00,37.0,36.7,29.87,SSE,157,0.0,-999.0,99,-99.99,,,0.00,Acu-Link.com,2013-10-19 09:04:00,
2013-10-19 05:19:00,36.7,36.4,29.87,East,90,0.0,-999.0,99,-99.99,,,0.00,Acu-Link.com,2013-10-19 09:19:00,
2013-10-19 05:35:00,36.5,36.2,29.86,NNE,22,0.0,-999.0,99,-99.99,,,0.00,Acu-Link.com,2013-10-19 09:35:00,
2013-10-19 05:50:00,36.7,36.4,29.86,South,180,0.0,-999.0,99,-99.99,,,0.00,Acu-Link.com,2013-10-19 09:50:00,
2013-10-19 06:05:00,35.8,35.5,29.86,ESE,112,0.0,-999.0,99,-99.99,,,0.00,Acu-Link.com,2013-10-19 10:05:00,
2013-10-19 06:21:00,35.6,35.3,29.86,East,90,0.0,-999.0,99,-99.99,,,0.00,Acu-Link.com,2013-10-19 10:21:00,
2013-10-19 06:36:00,35.6,35.3,29.85,ESE,112,0.0,-999.0,99,-99.99,,,0.00,Acu-Link.com,2013-10-19 10:36:00,
2013-10-19 06:51:00,36.0,35.7,29.85,ESE,112,0.0,-999.0,99,-99.99,,,0.00,Acu-Link.com,2013-10-19 10:51:00,
2013-10-19 07:07:00,36.3,36.0,29.83,ENE,67,0.0,-999.0,99,-99.99,,,0.00,Acu-Link.com,2013-10-19 11:07:00,
2013-10-19 07:22:00,36.5,36.2,29.83,ENE,67,0.0,-999.0,99,-99.99,,,0.00,Acu-Link.com,2013-10-19 11:22:00,
2013-10-19 07:37:00,36.5,36.2,29.83,ESE,112,0.0,-999.0,99,-99.99,,,0.00,Acu-Link.com,2013-10-19 11:37:00,
2013-10-19 07:53:00,37.2,36.9,29.83,ESE,112,0.0,-999.0,99,-99.99,,,0.00,Acu-Link.com,2013-10-19 11:53:00,
2013-10-19 08:09:00,38.1,37.8,29.83,SSE,157,0.0,-999.0,99,-99.99,,,0.00,Acu-Link.com,2013-10-19 12:09:00,
2013-10-19 08:24:00,39.4,39.1,29.84,NNW,337,0.0,-999.0,99,-99.99,,,0.00,Acu-Link.com,2013-10-19 12:24:00,
2013-10-19 08:39:00,38.7,38.4,29.84,NW,315,1.1,-999.0,99,-99.99,,,0.00,Acu-Link.com,2013-10-19 12:39:00,
2013-10-19 08:55:00,40.5,40.2,29.82,West,270,0.0,-999.0,99,-99.99,,,0.00,Acu-Link.com,2013-10-19 12:55:00,
2013-10-19 09:10:00,39.9,39.6,29.84,North,0,0.0,-999.0,99,-99.99,,,0.00,Acu-Link.com,2013-10-19 13:10:00,
2013-10-19 09:25:00,41.0,40.7,29.83,West,270,0.0,-999.0,99,-99.99,,,0.00,Acu-Link.com,2013-10-19 13:25:00,
2013-10-19 09:40:00,43.0,42.7,29.82,NNW,337,2.7,-999.0,99,-99.99,,,0.00,Acu-Link.com,2013-10-19 13:40:00,
2013-10-19 09:55:00,47.5,44.1,29.81,ENE,67,1.1,-999.0,88,-99.99,,,0.00,Acu-Link.com,2013-10-19 13:55:00,
2013-10-19 10:10:00,49.3,44.0,29.81,East,90,1.7,-999.0,82,-99.99,,,0.00,Acu-Link.com,2013-10-19 14:10:00,
2013-10-19 10:26:00,50.2,44.3,29.81,WSW,247,3.7,-999.0,80,-99.99,,,0.00,Acu-Link.com,2013-10-19 14:26:00,
2013-10-19 10:41:00,50.9,44.6,29.79,South,180,2.2,-999.0,79,-99.99,,,0.00,Acu-Link.com,2013-10-19 14:41:00,
2013-10-19 10:56:00,51.3,45.0,29.80,South,180,0.0,-999.0,79,-99.99,,,0.00,Acu-Link.com,2013-10-19 14:56:00,
2013-10-19 11:11:00,52.5,45.5,29.80,West,270,2.7,-999.0,77,-99.99,,,0.00,Acu-Link.com,2013-10-19 15:11:00,
2013-10-19 11:27:00,51.8,45.5,29.79,WSW,247,2.7,-999.0,79,-99.99,,,0.00,Acu-Link.com,2013-10-19 15:27:00,
2013-10-19 11:42:00,51.6,45.6,29.79,West,270,0.0,-999.0,80,-99.99,,,0.00,Acu-Link.com,2013-10-19 15:42:00,
2013-10-19 11:57:00,51.8,45.8,29.78,East,90,1.7,-999.0,80,-99.99,,,0.00,Acu-Link.com,2013-10-19 15:57:00,
2013-10-19 12:12:00,51.3,46.0,29.78,SW,225,2.7,-999.0,82,-99.99,,,0.00,Acu-Link.com,2013-10-19 16:12:00,
2013-10-19 12:27:00,51.8,46.2,29.77,West,270,2.2,-999.0,81,-99.99,,,0.00,Acu-Link.com,2013-10-19 16:27:00,
2013-10-19 12:42:00,52.3,46.6,29.75,NNW,337,0.0,-999.0,81,-99.99,,,0.00,Acu-Link.com,2013-10-19 16:42:00,
2013-10-19 12:58:00,53.1,47.1,29.73,ESE,112,1.7,-999.0,80,-99.99,,,0.00,Acu-Link.com,2013-10-19 16:58:00,
2013-10-19 13:13:00,54.1,48.1,29.73,West,270,6.8,-999.0,80,-99.99,,,0.00,Acu-Link.com,2013-10-19 17:13:00,
2013-10-19 13:28:00,54.3,48.6,29.72,NNW,337,2.2,-999.0,81,-99.99,,,0.00,Acu-Link.com,2013-10-19 17:28:00,
2013-10-19 13:43:00,54.7,49.0,29.72,SSW,202,1.7,-999.0,81,-99.99,,,0.00,Acu-Link.com,2013-10-19 17:43:00,
2013-10-19 13:58:00,54.9,49.2,29.74,West,270,3.7,-999.0,81,-99.99,,,0.00,Acu-Link.com,2013-10-19 17:58:00,
2013-10-19 14:14:00,54.0,49.3,29.75,West,270,2.7,-999.0,84,-99.99,,,0.00,Acu-Link.com,2013-10-19 18:14:00,
2013-10-19 14:29:00,54.1,49.1,29.73,South,180,1.7,-999.0,83,-99.99,,,0.00,Acu-Link.com,2013-10-19 18:29:00,
2013-10-19 14:44:00,54.5,47.1,29.73,SSW,202,4.2,-999.0,76,-99.99,,,0.00,Acu-Link.com,2013-10-19 18:44:00,
2013-10-19 14:59:00,55.2,43.2,29.73,South,180,7.3,-999.0,64,-99.99,,,0.00,Acu-Link.com,2013-10-19 18:59:00,
2013-10-19 15:15:00,55.2,40.7,29.71,West,270,6.8,-999.0,58,-99.99,,,0.00,Acu-Link.com,2013-10-19 19:15:00,
2013-10-19 15:30:00,55.0,40.9,29.72,West,270,4.2,-999.0,59,-99.99,,,0.00,Acu-Link.com,2013-10-19 19:30:00,
2013-10-19 15:45:00,55.6,41.5,29.71,West,270,6.3,-999.0,59,-99.99,,,0.00,Acu-Link.com,2013-10-19 19:45:00,
2013-10-19 16:00:00,54.5,42.2,29.72,WSW,247,2.2,-999.0,63,-99.99,,,0.00,Acu-Link.com,2013-10-19 20:00:00,
2013-10-19 16:15:00,53.6,42.1,29.73,WNW,292,5.8,-999.0,65,-99.99,,,0.00,Acu-Link.com,2013-10-19 20:15:00,
2013-10-19 16:31:00,52.3,43.9,29.73,NW,315,5.8,-999.0,73,-99.99,,,0.00,Acu-Link.com,2013-10-19 20:31:00,
2013-10-19 16:46:00,51.1,44.8,29.73,East,90,4.2,-999.0,79,-99.99,,,0.00,Acu-Link.com,2013-10-19 20:46:00,
2013-10-19 17:01:00,49.8,46.4,29.74,West,270,5.3,-999.0,88,-99.99,,,0.00,Acu-Link.com,2013-10-19 21:01:00,
2013-10-19 17:16:00,49.1,46.9,29.74,WSW,247,4.7,-999.0,92,-99.99,,,0.00,Acu-Link.com,2013-10-19 21:16:00,
2013-10-19 17:31:00,48.2,46.8,29.74,West,270,7.3,-999.0,95,-99.99,,,0.00,Acu-Link.com,2013-10-19 21:31:00,
2013-10-19 17:47:00,47.3,47.0,29.75,West,270,5.3,-999.0,99,-99.99,,,0.00,Acu-Link.com,2013-10-19 21:47:00,
2013-10-19 18:02:00,47.1,46.8,29.74,SW,225,5.3,-999.0,99,-99.99,,,0.01,Acu-Link.com,2013-10-19 22:02:00,
2013-10-19 18:17:00,46.8,46.5,29.75,West,270,4.7,-999.0,99,-99.99,,,0.01,Acu-Link.com,2013-10-19 22:17:00,
2013-10-19 18:32:00,46.6,46.3,29.74,SE,135,4.2,-999.0,99,-99.99,,,0.01,Acu-Link.com,2013-10-19 22:32:00,
2013-10-19 18:47:00,46.4,46.1,29.73,WNW,292,1.7,-999.0,99,-99.99,,,0.01,Acu-Link.com,2013-10-19 22:47:00,
2013-10-19 19:03:00,46.4,46.1,29.75,SW,225,3.2,-999.0,99,-99.99,,,0.01,Acu-Link.com,2013-10-19 23:03:00,
2013-10-19 19:18:00,46.2,45.9,29.75,West,270,4.7,-999.0,99,-99.99,,,0.01,Acu-Link.com,2013-10-19 23:18:00,
2013-10-19 19:33:00,46.2,45.9,29.75,WSW,247,2.7,-999.0,99,-99.99,,,0.01,Acu-Link.com,2013-10-19 23:33:00,
2013-10-19 19:48:00,46.8,46.5,29.75,West,270,4.7,-999.0,99,-99.99,,,0.01,Acu-Link.com,2013-10-19 23:48:00,
2013-10-19 20:04:00,46.9,45.8,29.75,SW,225,6.8,-999.0,96,-99.99,,,0.01,Acu-Link.com,2013-10-20 00:04:00,
2013-10-19 20:19:00,46.8,46.3,29.76,WSW,247,7.8,-999.0,98,-99.99,,,0.01,Acu-Link.com,2013-10-20 00:19:00,
2013-10-19 20:34:00,46.2,45.9,29.77,West,270,13.0,-999.0,99,-99.99,,,0.01,Acu-Link.com,2013-10-20 00:34:00,
2013-10-19 20:49:00,45.5,45.2,29.78,West,270,7.3,-999.0,99,-99.99,,,0.02,Acu-Link.com,2013-10-20 00:49:00,
2013-10-19 21:05:00,44.6,44.1,29.79,NNW,337,7.8,-999.0,98,-99.99,,,0.02,Acu-Link.com,2013-10-20 01:05:00,
2013-10-19 21:20:00,43.3,43.0,29.80,West,270,13.5,-999.0,99,-99.99,,,0.02,Acu-Link.com,2013-10-20 01:20:00,
2013-10-19 21:35:00,42.3,42.0,29.81,West,270,8.9,-999.0,99,-99.99,,,0.02,Acu-Link.com,2013-10-20 01:35:00,
2013-10-19 21:50:00,41.9,41.6,29.82,WSW,247,7.3,-999.0,99,-99.99,,,0.02,Acu-Link.com,2013-10-20 01:50:00,
2013-10-19 22:06:00,41.5,41.2,29.82,WSW,247,6.3,-999.0,99,-99.99,,,0.02,Acu-Link.com,2013-10-20 02:06:00,
2013-10-19 22:21:00,41.2,40.1,29.82,WNW,292,11.9,-999.0,96,-99.99,,,0.02,Acu-Link.com,2013-10-20 02:21:00,
2013-10-19 22:36:00,41.0,38.9,29.82,WNW,292,4.2,-999.0,92,-99.99,,,0.02,Acu-Link.com,2013-10-20 02:36:00,
2013-10-19 22:51:00,40.5,39.2,29.83,WNW,292,10.4,-999.0,95,-99.99,,,0.02,Acu-Link.com,2013-10-20 02:51:00,
2013-10-19 23:06:00,39.9,39.4,29.83,West,270,8.3,-999.0,98,-99.99,,,0.02,Acu-Link.com,2013-10-20 03:06:00,
2013-10-19 23:22:00,39.0,38.2,29.84,West,270,8.3,-999.0,97,-99.99,,,0.02,Acu-Link.com,2013-10-20 03:22:00,
2013-10-19 23:37:00,38.8,38.0,29.84,West,270,4.2,-999.0,97,-99.99,,,0.02,Acu-Link.com,2013-10-20 03:37:00,
2013-10-19 23:52:00,38.3,37.8,29.84,West,270,4.2,-999.0,98,-99.99,,,0.02,Acu-Link.com,2013-10-20 03:52:00,